Flight Track Log - Related Links

Times and Time Zones

All times are in EDT time to prevent confusion due to time zone crossing. See the EJA583 flight status page for this flight to view local times or setup timezone preferences in your user account.

Time Position Orientation Groundspeed Altitude Reporting Facility
EDT Latitude Longitude Course Direction KTS MPH feet Rate Location/Type
Wed 09:21:51 AM 30.4058 -86.4947 315° West 188 216 1,200  Level Houston Center
Wed 09:22:53 AM 30.3792 -86.5464 239° Southwest 187 215 4,700 3,194 Climbing Houston Center
Wed 09:23:55 AM 30.3950 -86.5981 290° West 236 272 7,800 2,565 Climbing Houston Center
Wed 09:24:57 AM 30.4706 -86.6056 355° North 262 302 10,000 2,806 Climbing Houston Center
Wed 09:25:59 AM 30.5606 -86.6625 331° Northwest 297 342 13,600 3,120 Climbing Houston Center
Wed 09:27:00 AM 30.4255 -86.5005 315° West  Level FlightAware Approximate
Wed 09:27:02 AM 30.6278 -86.7192 324° Northwest 302 348 16,500  Level Houston Center
Wed 09:28:04 AM 30.6983 -86.7753 326° Northwest 303 349 18,600 1,636 Climbing Houston Center
Wed 09:29:14 AM 30.7978 -86.8514 327° Northwest 325 374 20,100 1,154 Climbing Jacksonville Center
Wed 09:30:14 AM 30.9003 -86.8483 North 343 395 21,100 1,300 Climbing Jacksonville Center
Wed 09:31:14 AM 31.0092 -86.8358 North 366 421 22,700 1,750 Climbing Jacksonville Center
Wed 09:32:14 AM 31.0969 -86.8372 359° North 358 412 24,600 1,699 Climbing Jacksonville Center
Wed 09:34:00 AM 31.2750 -86.8158 North 369 425 27,400 1,518 Climbing Atlanta Center
Wed 09:35:00 AM 31.3656 -86.8719 332° Northwest 355 409 28,800 1,300 Climbing Atlanta Center
Wed 09:36:00 AM 31.4236 -86.9761 303° West 351 404 30,000 1,100 Climbing Atlanta Center
Wed 09:37:00 AM 31.4897 -87.0950 303° West 369 425 31,000 1,000 Climbing Atlanta Center
Wed 09:38:00 AM 31.5475 -87.2042 302° West 389 448 32,000 1,350 Climbing Atlanta Center
Wed 09:39:00 AM 31.6069 -87.3208 301° West 403 464 33,700 1,800 Climbing Atlanta Center
Wed 09:40:00 AM 31.6606 -87.4278 301° West 403 464 35,600 1,750 Climbing Atlanta Center
Wed 09:41:00 AM 31.7181 -87.5325 303° West 391 450 37,200 1,550 Climbing Atlanta Center
Wed 09:42:00 AM 31.7736 -87.6394 301° West 391 450 38,700 866 Climbing Atlanta Center
Wed 09:44:14 AM 31.8997 -87.8714 303° West 388 447 40,000 400 Climbing Memphis Center
Wed 09:45:15 AM 31.9583 -87.9897 300° West 399 459 40,000  Level Memphis Center
Wed 09:46:14 AM 32.0169 -88.1033 301° West 412 474 40,000  Level Memphis Center
Wed 09:47:14 AM 32.0794 -88.2194 302° West 412 474 40,000  Level Memphis Center
Wed 09:48:15 AM 32.1397 -88.3358 301° West 412 474 40,000  Level Memphis Center
Wed 09:49:14 AM 32.1981 -88.4497 301° West 412 474 40,000  Level Memphis Center
Wed 09:50:15 AM 32.2561 -88.5664 300° West 412 474 40,000  Level Memphis Center
Wed 09:51:14 AM 32.3161 -88.6783 302° West 412 474 40,000  Level Memphis Center
Wed 09:52:26 AM 32.3889 -88.8147 302° West 412 474 40,000  Level Memphis Center
Wed 09:53:27 AM 32.4631 -88.9144 311° West 412 474 40,000  Level Memphis Center
Wed 09:54:26 AM 32.5394 -89.0192 311° West 412 474 40,000  Level Memphis Center
Wed 09:55:27 AM 32.6136 -89.1167 312° West 412 474 40,000  Level Memphis Center
Wed 09:56:26 AM 32.6875 -89.2169 311° West 412 474 40,000  Level Memphis Center
Wed 09:57:27 AM 32.7636 -89.3197 311° West 406 467 40,000  Level Memphis Center
Wed 09:58:27 AM 32.8375 -89.4203 311° West 406 467 40,000  Level Memphis Center
Wed 09:59:26 AM 32.9217 -89.5331 312° West 411 473 40,000  Level Memphis Center
Wed 10:00:26 AM 32.9997 -89.6314 313° West 411 473 40,000  Level Memphis Center
Wed 10:01:27 AM 33.0775 -89.7375 311° West 416 479 40,000  Level Memphis Center
Wed 10:02:26 AM 33.1508 -89.8436 310° West 416 479 40,000  Level Memphis Center
Wed 10:03:27 AM 33.2244 -89.9475 310° West 416 479 40,000  Level Memphis Center
Wed 10:04:27 AM 33.2914 -90.0392 311° West 411 473 40,000  Level Memphis Center
Wed 10:05:26 AM 33.3647 -90.1433 310° West 411 473 40,000  Level Memphis Center
Wed 10:06:26 AM 33.4381 -90.2453 311° West 406 467 40,000  Level Memphis Center
Wed 10:07:26 AM 33.5069 -90.3472 309° West 401 461 40,000  Level Memphis Center
Wed 10:08:26 AM 33.5778 -90.4544 308° West 401 461 40,000  Level Memphis Center
Wed 10:09:26 AM 33.6467 -90.5619 308° West 401 461 40,000  Level Memphis Center
Wed 10:10:27 AM 33.7153 -90.6694 308° West 407 468 40,000  Level Memphis Center
Wed 10:11:26 AM 33.7858 -90.7744 309° West 407 468 40,000  Level Memphis Center
Wed 10:12:26 AM 33.8564 -90.8825 308° West 416 479 40,000  Level Memphis Center
Wed 10:13:26 AM 33.9250 -90.9906 307° West 416 479 40,000  Level Memphis Center
Wed 10:14:26 AM 33.9994 -91.1139 306° West 416 479 40,000  Level Memphis Center
Wed 10:15:26 AM 34.0717 -91.2222 309° West 416 479 40,000  Level Memphis Center
Wed 10:16:26 AM 34.1419 -91.3333 307° West 416 479 40,000  Level Memphis Center
Wed 10:17:26 AM 34.2139 -91.4447 308° West 421 484 40,000  Level Memphis Center
Wed 10:18:26 AM 34.2819 -91.5511 308° West 416 479 40,000  Level Memphis Center
Wed 10:19:26 AM 34.3517 -91.6653 307° West 416 479 40,000  Level Memphis Center
Wed 10:20:26 AM 34.4133 -91.7619 308° West 416 479 40,000  Level Memphis Center
Wed 10:21:26 AM 34.4850 -91.8714 308° West 416 479 40,000  Level Memphis Center
Wed 10:22:26 AM 34.5525 -91.9836 306° West 416 479 40,000  Level Memphis Center
Wed 10:23:26 AM 34.6197 -92.0908 307° West 411 473 40,000  Level Memphis Center
Wed 10:24:26 AM 34.6892 -92.1983 308° West 411 473 40,000  Level Memphis Center
Wed 10:25:26 AM 34.7669 -92.2986 313° West 411 473 40,000  Level Memphis Center
Wed 10:26:26 AM 34.8447 -92.3967 314° West 406 467 40,000  Level Memphis Center
Wed 10:27:26 AM 34.9222 -92.4972 313° West 401 461 40,000 -650 Level Memphis Center
Wed 10:28:26 AM 34.9997 -92.6006 312° West 396 456 38,700 -1,750 Descending Memphis Center
Wed 10:29:26 AM 35.0772 -92.7017 313° West 396 456 36,500 -2,200 Descending Memphis Center
Wed 10:30:26 AM 35.1606 -92.8081 314° West 401 461 34,300 -2,150 Descending Memphis Center
Wed 10:31:26 AM 35.2319 -92.9017 313° West 399 459 32,200 -2,050 Descending Memphis Center
Wed 10:32:26 AM 35.3008 -92.9953 312° West 388 447 30,200 -2,050 Descending Memphis Center
Wed 10:33:26 AM 35.3778 -93.0997 312° West 393 452 28,100 -2,150 Descending Memphis Center
Wed 10:34:26 AM 35.4550 -93.1964 314° West 405 466 25,900 -2,200 Descending Memphis Center
Wed 10:35:26 AM 35.5336 -93.3036 312° West 405 466 23,700 -2,200 Descending Memphis Center
Wed 10:36:26 AM 35.6167 -93.4114 313° West 400 460 21,500 -2,100 Descending Memphis Center
Wed 10:37:26 AM 35.6853 -93.5058 312° West 379 436 19,500 -1,900 Descending Memphis Center
Wed 10:38:26 AM 35.7581 -93.5906 317° Northwest 374 430 17,700 -1,800 Descending Memphis Center
Wed 10:39:26 AM 35.8289 -93.6778 315° West 362 417 15,900 -1,750 Descending Memphis Center
Wed 10:40:26 AM 35.8975 -93.7625 315° West 357 411 14,200 -1,700 Descending Memphis Center
Wed 10:41:26 AM 35.9661 -93.8450 316° Northwest 352 405 12,500 -1,700 Descending Memphis Center
Wed 10:42:26 AM 36.0306 -93.9272 314° West 346 398 10,800 -1,600 Descending Memphis Center
Wed 10:43:26 AM 36.0911 -93.9967 317° Northwest 321 369 9,300 -1,350 Descending Memphis Center
Wed 10:44:26 AM 36.1392 -94.0603 313° West 293 337 8,100 -1,450 Descending Memphis Center
Wed 10:45:26 AM 36.1894 -94.1219 315° West 272 313 6,400 -1,500 Descending Memphis Center
Wed 10:46:26 AM 36.2378 -94.1806 316° Northwest 255 293 5,100 -1,500 Descending Memphis Center
Wed 10:47:26 AM 36.2819 -94.2342 316° Northwest 236 272 3,400 -1,300 Descending Memphis Center
Wed 10:48:26 AM 36.3200 -94.2772 318° Northwest 212 244 2,500 -750 Descending Memphis Center
Wed 10:49:26 AM 36.3289 -94.3292 282° West 151 174 1,900 -600 Descending Memphis Center

Login

Don't have an account? Register now (free) for customized features, flight alerts, and more!